Sycamore, SC

2:56 PM EDT on September 21, 2014 (GMT -0400)
Orangeburg Municipal | Change Station
CLOSE
Current Station
Airport
Location: Orangeburg,
Elevation: 197 ft
Nearby Weather Stations

Elev 197 ft 33.46 °N, 80.86 °W | Updated 1 hour ago

Clear
Clear
85 °F
Feels Like 85 °F
N
8
Wind Variable Wind from West

Today
High -- | Low -- °F
--% Chance of Precip.
Yesterday
High -- | Low -- °F
Precip. -- in
7:12 AM 7:22 PM
Waning Crescent, 6% visible
Pressure 29.92 in
Visibility 10.0 miles
Clouds Clear
Heat Index 85 °F
Dew Point 62 °F
Humidity 46%
Rainfall 0.00 in
Snow Depth Not available.
UV 9 out of 12
Pollen 8.10 out of 12
Air Quality Not available.
Flu Activity Not available.
METAR KOGB 211753Z AUTO 27007KT 10SM CLR 29/17 A2993 RMK AO2 SLP131 T02940167 10294 20167 58024

More Conditions Fewer Conditions

Pressure 29.92 in
Visibility 10.0 miles
Clouds Clear
Heat Index 85 °F
Dew Point 62 °F
Humidity 46%
Rainfall 0.00 in
Snow Depth Not available.
UV 9 out of 12
Pollen 8.10 out of 12
Air Quality Not available.
Flu Activity Not available.
METAR KOGB 211753Z AUTO 27007KT 10SM CLR 29/17 A2993 RMK AO2 SLP131 T02940167 10294 20167 58024

More Conditions Fewer Conditions

10-Day Weather Forecast

Almanac

Astronomy

Sep. 21, 2014 Rise Set
Actual Time 7:12 AM EDT 7:22 PM EDT
Civil Twilight 6:47 AM EDT 7:47 PM EDT
Nautical Twilight 6:18 AM EDT 8:16 PM EDT
Astronomical Twilight 5:49 AM EDT 8:45 PM EDT
Moon 4:50 AM EDT 5:53 PM EDT
Length of Visible Light 12h 59m
Length of Day
12h 10m
Tomorrow will be 2m 1s shorter.
Waning Crescent, 6% of the Moon is Illuminated
Today
Waning Crescent
Sep 24
New
Oct 1
First Quarter
Oct 8
Full
Oct 15
Last Quarter

Today's Extremes

State Highs State Lows

Community

WunderPhotos

Upload Photos

1,755,211 photos uploaded!

WunderBlogs® & News

Nearby

Snow Depth

Station Depth Elevation
No new snow has been reported.

Earthquake Activity

City Distance Mag. Time & Date
New Ellenton, South Carolina 40 miles 2.6 4:38 PM EDT
2014-09-19
Minimum magnitude displayed is 2.5.

Coastal Water Temperatures

Place Temperature
No Stations Reporting

Nearby Weather Stations